Phoenix, AZ (85017)

6:13 PM MST on December 19, 2014 (GMT -0700)
Phoenix S of Christown | Change Station
CLOSE
Current Station
Personal Weather Station
Location: Phoenix, AZ
Elevation: 1152 ft
Nearby Weather Stations

Elev 1152 ft 33.51 °N, 112.10 °W | Updated 3 minutes ago

Mostly Cloudy
Mostly Cloudy
53.9 °F
Feels Like 53.9 °F
N
0.0
Wind Variable Wind from West
Gusts 0.0 mph

Today
High -- | Low -- °F
--% Chance of Precip.
Yesterday
High -- | Low -- °F
Precip. -- in
7:27 AM 5:23 PM
Waning Crescent, 5% visible
Pressure 30.10 in
Visibility 9.0 miles
Clouds Few 21000 ft
Scattered Clouds 25000 ft
Mostly Cloudy 29000 ft
Dew Point 41 °F
Humidity 61%
Rainfall 0.00 in
Snow Depth Not available.
UV 0 out of 12
Pollen 5.20 out of 12
Air Quality Not available.
Flu Activity Not available.
METAR KPHX 200051Z 31005KT 9SM FEW210 SCT250 BKN290 17/03 A3012 RMK AO2 SLP192 T01670028

More Conditions Fewer Conditions

Pressure 30.10 in
Visibility 9.0 miles
Clouds Few 21000 ft
Scattered Clouds 25000 ft
Mostly Cloudy 29000 ft
Dew Point 41 °F
Humidity 61%
Rainfall 0.00 in
Snow Depth Not available.
UV 0 out of 12
Pollen 5.20 out of 12
Air Quality Not available.
Flu Activity Not available.
METAR KPHX 200051Z 31005KT 9SM FEW210 SCT250 BKN290 17/03 A3012 RMK AO2 SLP192 T01670028

More Conditions Fewer Conditions

10-Day Weather Forecast

Almanac

Astronomy

Dec. 19, 2014 Rise Set
Actual Time
Civil Twilight
Nautical Twilight
Astronomical Twilight
Moon
Length of Visible Light
Length of Day
Tomorrow will be .
, % of the Moon is Illuminated

Today's Extremes

State Highs State Lows

Community

WunderPhotos

Upload Photos

1,779,099 photos uploaded!

WunderBlogs® & News

Nearby

Air Quality

  Air Quality AQ Index Pollutant
Not available.

Snow Depth

Station Depth Elevation

Earthquake Activity

City Distance Mag. Time & Date
Minimum magnitude displayed is 2.5.

Coastal Water Temperatures

Place Temperature

Nearby Weather Stations